sensor_id;sensor_type;location;lat;lon;timestamp;temperature;humidity
52787;DHT22;38661;53.152;5.846;2023-05-10T00:02:09;12.30;96.40
52787;DHT22;38661;53.152;5.846;2023-05-10T00:04:35;12.30;96.40
52787;DHT22;38661;53.152;5.846;2023-05-10T00:07:01;12.30;96.50
52787;DHT22;38661;53.152;5.846;2023-05-10T00:09:27;12.30;96.60
52787;DHT22;38661;53.152;5.846;2023-05-10T00:11:52;12.20;96.50
52787;DHT22;38661;53.152;5.846;2023-05-10T00:14:18;12.30;96.60
52787;DHT22;38661;53.152;5.846;2023-05-10T00:16:44;12.30;96.50
52787;DHT22;38661;53.152;5.846;2023-05-10T00:19:10;12.20;96.40
52787;DHT22;38661;53.152;5.846;2023-05-10T00:21:36;12.30;96.40
52787;DHT22;38661;53.152;5.846;2023-05-10T00:24:01;12.20;96.40
52787;DHT22;38661;53.152;5.846;2023-05-10T00:26:27;12.20;96.30
52787;DHT22;38661;53.152;5.846;2023-05-10T00:28:53;12.20;96.40
52787;DHT22;38661;53.152;5.846;2023-05-10T00:31:19;12.20;96.40
52787;DHT22;38661;53.152;5.846;2023-05-10T00:33:44;12.10;96.40
52787;DHT22;38661;53.152;5.846;2023-05-10T00:36:11;12.10;96.40
52787;DHT22;38661;53.152;5.846;2023-05-10T00:38:36;12.10;96.40
52787;DHT22;38661;53.152;5.846;2023-05-10T00:41:02;12.10;96.50
52787;DHT22;38661;53.152;5.846;2023-05-10T00:43:28;12.10;96.50
52787;DHT22;38661;53.152;5.846;2023-05-10T00:45:54;12.00;96.60
52787;DHT22;38661;53.152;5.846;2023-05-10T00:48:20;12.10;96.70
52787;DHT22;38661;53.152;5.846;2023-05-10T00:50:46;12.10;96.60
52787;DHT22;38661;53.152;5.846;2023-05-10T00:53:12;12.10;96.50
52787;DHT22;38661;53.152;5.846;2023-05-10T00:55:38;12.20;96.60
52787;DHT22;38661;53.152;5.846;2023-05-10T00:58:04;12.10;96.60
52787;DHT22;38661;53.152;5.846;2023-05-10T01:00:31;12.20;96.70
52787;DHT22;38661;53.152;5.846;2023-05-10T01:02:58;12.20;96.70
52787;DHT22;38661;53.152;5.846;2023-05-10T01:05:23;12.10;96.70
52787;DHT22;38661;53.152;5.846;2023-05-10T01:07:49;12.20;96.70
52787;DHT22;38661;53.152;5.846;2023-05-10T01:10:15;12.20;96.80
52787;DHT22;38661;53.152;5.846;2023-05-10T01:12:42;12.20;96.80
52787;DHT22;38661;53.152;5.846;2023-05-10T01:15:10;12.20;96.80
52787;DHT22;38661;53.152;5.846;2023-05-10T01:17:38;12.30;96.90
52787;DHT22;38661;53.152;5.846;2023-05-10T01:20:06;12.20;96.70
52787;DHT22;38661;53.152;5.846;2023-05-10T01:33:47;12.30;96.60
52787;DHT22;38661;53.152;5.846;2023-05-10T01:36:31;12.30;96.60
52787;DHT22;38661;53.152;5.846;2023-05-10T01:39:10;12.20;96.60
52787;DHT22;38661;53.152;5.846;2023-05-10T01:41:45;12.30;96.80
52787;DHT22;38661;53.152;5.846;2023-05-10T01:44:17;12.20;96.60
52787;DHT22;38661;53.152;5.846;2023-05-10T01:46:51;12.20;96.60
52787;DHT22;38661;53.152;5.846;2023-05-10T01:49:27;12.30;96.80
52787;DHT22;38661;53.152;5.846;2023-05-10T01:52:00;12.30;96.60
52787;DHT22;38661;53.152;5.846;2023-05-10T01:54:29;12.20;96.60
52787;DHT22;38661;53.152;5.846;2023-05-10T01:57:06;12.20;96.60
52787;DHT22;38661;53.152;5.846;2023-05-10T01:59:35;12.30;96.80
52787;DHT22;38661;53.152;5.846;2023-05-10T02:02:02;12.20;96.60
52787;DHT22;38661;53.152;5.846;2023-05-10T02:04:30;12.20;96.60
52787;DHT22;38661;53.152;5.846;2023-05-10T02:06:57;12.20;96.70
52787;DHT22;38661;53.152;5.846;2023-05-10T02:09:24;12.30;97.00
52787;DHT22;38661;53.152;5.846;2023-05-10T02:11:51;12.20;96.80
52787;DHT22;38661;53.152;5.846;2023-05-10T02:14:18;12.20;96.70
52787;DHT22;38661;53.152;5.846;2023-05-10T02:16:46;12.30;96.80
52787;DHT22;38661;53.152;5.846;2023-05-10T02:19:13;12.20;96.80
52787;DHT22;38661;53.152;5.846;2023-05-10T02:21:40;12.20;96.60
52787;DHT22;38661;53.152;5.846;2023-05-10T02:24:07;12.20;96.60
52787;DHT22;38661;53.152;5.846;2023-05-10T02:26:36;12.20;96.50
52787;DHT22;38661;53.152;5.846;2023-05-10T02:29:03;12.10;96.60
52787;DHT22;38661;53.152;5.846;2023-05-10T02:31:32;12.10;96.60
52787;DHT22;38661;53.152;5.846;2023-05-10T02:33:59;12.20;96.70
52787;DHT22;38661;53.152;5.846;2023-05-10T02:36:27;12.10;96.70
52787;DHT22;38661;53.152;5.846;2023-05-10T02:38:54;12.10;96.70
52787;DHT22;38661;53.152;5.846;2023-05-10T02:41:21;12.10;96.70
52787;DHT22;38661;53.152;5.846;2023-05-10T02:43:50;12.10;96.70
52787;DHT22;38661;53.152;5.846;2023-05-10T02:46:17;12.10;96.80
52787;DHT22;38661;53.152;5.846;2023-05-10T02:48:44;12.10;97.00
52787;DHT22;38661;53.152;5.846;2023-05-10T02:51:12;12.20;96.90
52787;DHT22;38661;53.152;5.846;2023-05-10T02:53:43;12.20;96.70
52787;DHT22;38661;53.152;5.846;2023-05-10T02:56:20;12.10;96.90
52787;DHT22;38661;53.152;5.846;2023-05-10T02:58:47;12.20;96.80
52787;DHT22;38661;53.152;5.846;2023-05-10T03:01:12;12.20;96.70
52787;DHT22;38661;53.152;5.846;2023-05-10T03:03:38;12.20;96.80
52787;DHT22;38661;53.152;5.846;2023-05-10T03:06:04;12.20;96.70
52787;DHT22;38661;53.152;5.846;2023-05-10T03:08:30;12.20;96.80
52787;DHT22;38661;53.152;5.846;2023-05-10T03:17:23;12.20;96.70
52787;DHT22;38661;53.152;5.846;2023-05-10T03:19:57;12.20;96.70
52787;DHT22;38661;53.152;5.846;2023-05-10T03:22:44;12.30;96.70
52787;DHT22;38661;53.152;5.846;2023-05-10T03:25:11;12.20;96.50
52787;DHT22;38661;53.152;5.846;2023-05-10T03:27:40;12.20;96.50
52787;DHT22;38661;53.152;5.846;2023-05-10T03:30:12;12.20;96.50
52787;DHT22;38661;53.152;5.846;2023-05-10T03:32:38;12.20;96.60
52787;DHT22;38661;53.152;5.846;2023-05-10T03:35:08;12.20;96.60
52787;DHT22;38661;53.152;5.846;2023-05-10T03:37:34;12.20;96.60
52787;DHT22;38661;53.152;5.846;2023-05-10T03:40:00;12.20;96.40
52787;DHT22;38661;53.152;5.846;2023-05-10T03:42:26;12.20;96.50
52787;DHT22;38661;53.152;5.846;2023-05-10T03:44:51;12.20;96.40
52787;DHT22;38661;53.152;5.846;2023-05-10T03:47:17;12.10;96.50
52787;DHT22;38661;53.152;5.846;2023-05-10T03:49:43;12.10;96.60
52787;DHT22;38661;53.152;5.846;2023-05-10T03:52:08;12.10;96.60
52787;DHT22;38661;53.152;5.846;2023-05-10T03:54:34;12.20;96.60
52787;DHT22;38661;53.152;5.846;2023-05-10T03:56:59;12.20;96.60
52787;DHT22;38661;53.152;5.846;2023-05-10T03:59:26;12.20;96.60
52787;DHT22;38661;53.152;5.846;2023-05-10T04:01:52;12.20;96.60
52787;DHT22;38661;53.152;5.846;2023-05-10T04:04:18;12.10;96.60
52787;DHT22;38661;53.152;5.846;2023-05-10T04:06:53;12.10;96.50
52787;DHT22;38661;53.152;5.846;2023-05-10T04:09:19;12.10;96.60
52787;DHT22;38661;53.152;5.846;2023-05-10T04:11:45;12.10;96.50
52787;DHT22;38661;53.152;5.846;2023-05-10T04:14:10;12.10;96.60
52787;DHT22;38661;53.152;5.846;2023-05-10T04:16:36;12.10;96.80
52787;DHT22;38661;53.152;5.846;2023-05-10T04:19:02;12.10;96.70
52787;DHT22;38661;53.152;5.846;2023-05-10T04:21:28;12.10;96.70
52787;DHT22;38661;53.152;5.846;2023-05-10T04:23:54;12.10;96.70
52787;DHT22;38661;53.152;5.846;2023-05-10T04:26:19;12.10;96.70
52787;DHT22;38661;53.152;5.846;2023-05-10T04:28:46;12.10;96.80
52787;DHT22;38661;53.152;5.846;2023-05-10T04:31:12;12.10;96.60
52787;DHT22;38661;53.152;5.846;2023-05-10T04:33:37;12.10;96.50
52787;DHT22;38661;53.152;5.846;2023-05-10T04:36:03;12.10;96.60
52787;DHT22;38661;53.152;5.846;2023-05-10T04:38:29;12.10;96.70
52787;DHT22;38661;53.152;5.846;2023-05-10T04:41:07;12.10;96.60
52787;DHT22;38661;53.152;5.846;2023-05-10T04:43:33;12.10;96.60
52787;DHT22;38661;53.152;5.846;2023-05-10T04:45:59;12.10;96.70
52787;DHT22;38661;53.152;5.846;2023-05-10T04:48:24;12.00;96.60
52787;DHT22;38661;53.152;5.846;2023-05-10T04:50:50;12.00;96.80
52787;DHT22;38661;53.152;5.846;2023-05-10T04:53:16;12.10;96.80
52787;DHT22;38661;53.152;5.846;2023-05-10T04:55:42;12.10;96.90
52787;DHT22;38661;53.152;5.846;2023-05-10T04:58:07;12.10;96.90
52787;DHT22;38661;53.152;5.846;2023-05-10T05:00:33;12.10;96.90
52787;DHT22;38661;53.152;5.846;2023-05-10T05:02:59;12.10;97.10
52787;DHT22;38661;53.152;5.846;2023-05-10T05:05:26;12.10;96.90
52787;DHT22;38661;53.152;5.846;2023-05-10T05:07:52;12.10;97.00
52787;DHT22;38661;53.152;5.846;2023-05-10T05:10:18;12.10;96.90
52787;DHT22;38661;53.152;5.846;2023-05-10T05:12:43;12.10;96.90
52787;DHT22;38661;53.152;5.846;2023-05-10T05:15:09;12.10;97.00
52787;DHT22;38661;53.152;5.846;2023-05-10T05:17:36;12.10;96.90
52787;DHT22;38661;53.152;5.846;2023-05-10T05:20:01;12.10;97.00
52787;DHT22;38661;53.152;5.846;2023-05-10T05:22:27;12.10;97.00
52787;DHT22;38661;53.152;5.846;2023-05-10T05:24:54;12.10;96.80
52787;DHT22;38661;53.152;5.846;2023-05-10T05:27:20;12.10;96.90
52787;DHT22;38661;53.152;5.846;2023-05-10T05:29:56;12.20;96.80
52787;DHT22;38661;53.152;5.846;2023-05-10T05:32:22;12.10;96.80
52787;DHT22;38661;53.152;5.846;2023-05-10T05:34:48;12.20;96.80
52787;DHT22;38661;53.152;5.846;2023-05-10T05:37:15;12.10;96.80
52787;DHT22;38661;53.152;5.846;2023-05-10T05:39:41;12.20;96.80
52787;DHT22;38661;53.152;5.846;2023-05-10T05:42:08;12.20;96.90
52787;DHT22;38661;53.152;5.846;2023-05-10T05:44:34;12.20;96.90
52787;DHT22;38661;53.152;5.846;2023-05-10T05:47:00;12.20;96.90
52787;DHT22;38661;53.152;5.846;2023-05-10T05:49:26;12.20;96.90
52787;DHT22;38661;53.152;5.846;2023-05-10T05:51:51;12.20;96.80
52787;DHT22;38661;53.152;5.846;2023-05-10T05:54:17;12.30;96.80
52787;DHT22;38661;53.152;5.846;2023-05-10T05:56:43;12.30;96.90
52787;DHT22;38661;53.152;5.846;2023-05-10T05:59:10;12.30;96.80
52787;DHT22;38661;53.152;5.846;2023-05-10T06:01:36;12.30;96.80
52787;DHT22;38661;53.152;5.846;2023-05-10T06:04:01;12.30;96.80
52787;DHT22;38661;53.152;5.846;2023-05-10T06:06:27;12.30;96.80
52787;DHT22;38661;53.152;5.846;2023-05-10T06:08:53;12.30;96.80
52787;DHT22;38661;53.152;5.846;2023-05-10T06:11:19;12.30;96.80
52787;DHT22;38661;53.152;5.846;2023-05-10T06:13:46;12.40;96.90
52787;DHT22;38661;53.152;5.846;2023-05-10T06:16:12;12.30;96.80
52787;DHT22;38661;53.152;5.846;2023-05-10T06:18:39;12.30;96.80
52787;DHT22;38661;53.152;5.846;2023-05-10T06:21:05;12.30;96.90
52787;DHT22;38661;53.152;5.846;2023-05-10T06:23:30;12.30;96.80
52787;DHT22;38661;53.152;5.846;2023-05-10T06:25:56;12.40;96.80
52787;DHT22;38661;53.152;5.846;2023-05-10T06:28:22;12.40;96.70
52787;DHT22;38661;53.152;5.846;2023-05-10T06:30:47;12.30;96.60
52787;DHT22;38661;53.152;5.846;2023-05-10T06:33:13;12.30;96.70
52787;DHT22;38661;53.152;5.846;2023-05-10T06:35:39;12.40;96.60
52787;DHT22;38661;53.152;5.846;2023-05-10T06:38:04;12.30;96.50
52787;DHT22;38661;53.152;5.846;2023-05-10T06:40:30;12.40;96.60
52787;DHT22;38661;53.152;5.846;2023-05-10T06:42:56;12.30;96.50
52787;DHT22;38661;53.152;5.846;2023-05-10T06:45:21;12.40;96.70
52787;DHT22;38661;53.152;5.846;2023-05-10T06:47:47;12.40;96.70
52787;DHT22;38661;53.152;5.846;2023-05-10T06:50:13;12.40;96.50
52787;DHT22;38661;53.152;5.846;2023-05-10T06:52:39;12.50;96.50
52787;DHT22;38661;53.152;5.846;2023-05-10T06:55:05;12.50;96.50
52787;DHT22;38661;53.152;5.846;2023-05-10T06:57:31;12.50;96.50
52787;DHT22;38661;53.152;5.846;2023-05-10T06:59:58;12.50;96.40
52787;DHT22;38661;53.152;5.846;2023-05-10T07:02:24;12.50;96.50
52787;DHT22;38661;53.152;5.846;2023-05-10T07:04:50;12.50;96.40
52787;DHT22;38661;53.152;5.846;2023-05-10T07:07:17;12.50;96.40
52787;DHT22;38661;53.152;5.846;2023-05-10T07:09:43;12.40;96.40
52787;DHT22;38661;53.152;5.846;2023-05-10T07:12:08;12.40;96.40
52787;DHT22;38661;53.152;5.846;2023-05-10T07:14:34;12.40;96.40
52787;DHT22;38661;53.152;5.846;2023-05-10T07:17:00;12.50;96.50
52787;DHT22;38661;53.152;5.846;2023-05-10T07:19:25;12.40;96.60
52787;DHT22;38661;53.152;5.846;2023-05-10T07:21:51;12.50;96.40
52787;DHT22;38661;53.152;5.846;2023-05-10T07:24:17;12.50;96.50
52787;DHT22;38661;53.152;5.846;2023-05-10T07:26:43;12.50;96.40
52787;DHT22;38661;53.152;5.846;2023-05-10T07:29:09;12.50;96.40
52787;DHT22;38661;53.152;5.846;2023-05-10T07:31:35;12.50;96.40
52787;DHT22;38661;53.152;5.846;2023-05-10T07:34:01;12.50;96.40
52787;DHT22;38661;53.152;5.846;2023-05-10T07:36:26;12.60;96.30
52787;DHT22;38661;53.152;5.846;2023-05-10T07:38:53;12.60;96.00
52787;DHT22;38661;53.152;5.846;2023-05-10T07:41:18;12.60;96.10
52787;DHT22;38661;53.152;5.846;2023-05-10T07:43:44;12.60;96.20
52787;DHT22;38661;53.152;5.846;2023-05-10T07:46:10;12.60;95.90
52787;DHT22;38661;53.152;5.846;2023-05-10T07:48:37;12.60;95.90
52787;DHT22;38661;53.152;5.846;2023-05-10T07:51:02;12.60;95.90
52787;DHT22;38661;53.152;5.846;2023-05-10T07:53:28;12.60;95.90
52787;DHT22;38661;53.152;5.846;2023-05-10T07:55:57;12.70;96.00
52787;DHT22;38661;53.152;5.846;2023-05-10T07:58:24;12.60;95.90
52787;DHT22;38661;53.152;5.846;2023-05-10T08:00:50;12.70;95.80
52787;DHT22;38661;53.152;5.846;2023-05-10T08:03:16;12.70;95.80
52787;DHT22;38661;53.152;5.846;2023-05-10T08:05:41;12.80;95.90
52787;DHT22;38661;53.152;5.846;2023-05-10T08:08:07;12.80;95.80
52787;DHT22;38661;53.152;5.846;2023-05-10T08:10:33;12.80;95.90
52787;DHT22;38661;53.152;5.846;2023-05-10T08:12:59;12.90;95.90
52787;DHT22;38661;53.152;5.846;2023-05-10T08:15:24;13.00;95.90
52787;DHT22;38661;53.152;5.846;2023-05-10T08:17:54;13.00;95.90
52787;DHT22;38661;53.152;5.846;2023-05-10T08:20:20;13.10;95.90
52787;DHT22;38661;53.152;5.846;2023-05-10T08:22:46;13.20;95.90
52787;DHT22;38661;53.152;5.846;2023-05-10T08:25:12;13.30;96.00
52787;DHT22;38661;53.152;5.846;2023-05-10T08:27:37;13.30;95.70
52787;DHT22;38661;53.152;5.846;2023-05-10T08:30:03;13.30;95.70
52787;DHT22;38661;53.152;5.846;2023-05-10T08:32:29;13.30;95.60
52787;DHT22;38661;53.152;5.846;2023-05-10T08:34:55;13.30;95.30
52787;DHT22;38661;53.152;5.846;2023-05-10T08:37:23;13.30;95.20
52787;DHT22;38661;53.152;5.846;2023-05-10T08:39:48;13.30;94.90
52787;DHT22;38661;53.152;5.846;2023-05-10T08:42:18;13.40;94.70
52787;DHT22;38661;53.152;5.846;2023-05-10T08:44:47;13.40;94.50
52787;DHT22;38661;53.152;5.846;2023-05-10T08:47:16;13.50;94.20
52787;DHT22;38661;53.152;5.846;2023-05-10T08:49:43;13.50;94.10
52787;DHT22;38661;53.152;5.846;2023-05-10T08:52:10;13.40;94.00
52787;DHT22;38661;53.152;5.846;2023-05-10T08:54:36;13.50;93.90
52787;DHT22;38661;53.152;5.846;2023-05-10T08:57:03;13.50;93.90
52787;DHT22;38661;53.152;5.846;2023-05-10T08:59:29;13.50;93.70
52787;DHT22;38661;53.152;5.846;2023-05-10T09:01:57;13.50;93.80
52787;DHT22;38661;53.152;5.846;2023-05-10T09:04:24;13.50;93.60
52787;DHT22;38661;53.152;5.846;2023-05-10T09:06:50;13.50;93.40
52787;DHT22;38661;53.152;5.846;2023-05-10T09:09:17;13.50;93.40
52787;DHT22;38661;53.152;5.846;2023-05-10T09:11:43;13.50;93.40
52787;DHT22;38661;53.152;5.846;2023-05-10T09:14:10;13.60;93.30
52787;DHT22;38661;53.152;5.846;2023-05-10T09:16:37;13.60;93.20
52787;DHT22;38661;53.152;5.846;2023-05-10T09:19:03;13.70;93.10
52787;DHT22;38661;53.152;5.846;2023-05-10T09:21:30;13.70;93.10
52787;DHT22;38661;53.152;5.846;2023-05-10T09:23:56;13.70;93.00
52787;DHT22;38661;53.152;5.846;2023-05-10T09:26:23;13.70;93.00
52787;DHT22;38661;53.152;5.846;2023-05-10T09:28:56;13.70;92.80
52787;DHT22;38661;53.152;5.846;2023-05-10T09:31:22;13.70;92.80
52787;DHT22;38661;53.152;5.846;2023-05-10T09:33:50;13.70;92.80
52787;DHT22;38661;53.152;5.846;2023-05-10T09:36:16;13.70;92.90
52787;DHT22;38661;53.152;5.846;2023-05-10T09:38:50;13.70;92.70
52787;DHT22;38661;53.152;5.846;2023-05-10T09:41:23;13.70;92.70
52787;DHT22;38661;53.152;5.846;2023-05-10T09:43:55;13.80;92.80
52787;DHT22;38661;53.152;5.846;2023-05-10T09:46:21;13.80;92.90
52787;DHT22;38661;53.152;5.846;2023-05-10T09:48:48;13.90;92.80
52787;DHT22;38661;53.152;5.846;2023-05-10T09:51:21;14.00;92.90
52787;DHT22;38661;53.152;5.846;2023-05-10T09:53:47;14.00;92.60
52787;DHT22;38661;53.152;5.846;2023-05-10T09:56:36;14.00;92.40
52787;DHT22;38661;53.152;5.846;2023-05-10T09:59:03;14.00;92.00
52787;DHT22;38661;53.152;5.846;2023-05-10T10:01:29;14.10;92.00
52787;DHT22;38661;53.152;5.846;2023-05-10T10:03:56;14.00;92.00
52787;DHT22;38661;53.152;5.846;2023-05-10T10:06:24;14.10;91.80
52787;DHT22;38661;53.152;5.846;2023-05-10T10:08:50;14.10;91.50
52787;DHT22;38661;53.152;5.846;2023-05-10T10:11:17;14.10;91.60
52787;DHT22;38661;53.152;5.846;2023-05-10T10:13:43;14.10;91.70
52787;DHT22;38661;53.152;5.846;2023-05-10T10:16:09;14.20;91.60
52787;DHT22;38661;53.152;5.846;2023-05-10T10:18:36;14.20;91.40
52787;DHT22;38661;53.152;5.846;2023-05-10T10:21:07;14.30;91.40
52787;DHT22;38661;53.152;5.846;2023-05-10T10:23:37;14.30;91.20
52787;DHT22;38661;53.152;5.846;2023-05-10T10:26:04;14.30;91.30
52787;DHT22;38661;53.152;5.846;2023-05-10T10:28:53;14.40;91.30
52787;DHT22;38661;53.152;5.846;2023-05-10T10:34:35;14.50;90.50
52787;DHT22;38661;53.152;5.846;2023-05-10T10:37:06;14.40;90.50
52787;DHT22;38661;53.152;5.846;2023-05-10T10:39:32;14.40;90.60
52787;DHT22;38661;53.152;5.846;2023-05-10T10:41:58;14.40;90.40
52787;DHT22;38661;53.152;5.846;2023-05-10T10:47:05;14.50;89.90
52787;DHT22;38661;53.152;5.846;2023-05-10T10:52:23;14.50;89.30
52787;DHT22;38661;53.152;5.846;2023-05-10T10:58:05;14.70;88.80
52787;DHT22;38661;53.152;5.846;2023-05-10T11:00:37;14.70;88.60
52787;DHT22;38661;53.152;5.846;2023-05-10T11:03:08;14.70;88.70
52787;DHT22;38661;53.152;5.846;2023-05-10T11:05:46;14.70;88.90
52787;DHT22;38661;53.152;5.846;2023-05-10T11:11:05;14.80;88.40
52787;DHT22;38661;53.152;5.846;2023-05-10T11:13:42;14.90;88.30
52787;DHT22;38661;53.152;5.846;2023-05-10T11:16:19;14.90;88.20
52787;DHT22;38661;53.152;5.846;2023-05-10T11:18:53;14.90;88.30
52787;DHT22;38661;53.152;5.846;2023-05-10T11:21:19;15.00;88.30
52787;DHT22;38661;53.152;5.846;2023-05-10T11:23:56;15.00;87.50
52787;DHT22;38661;53.152;5.846;2023-05-10T11:26:23;15.00;87.10
52787;DHT22;38661;53.152;5.846;2023-05-10T11:28:53;14.90;87.50
52787;DHT22;38661;53.152;5.846;2023-05-10T11:31:22;14.80;87.80
52787;DHT22;38661;53.152;5.846;2023-05-10T11:33:50;14.90;87.80
52787;DHT22;38661;53.152;5.846;2023-05-10T11:36:35;14.80;88.10
52787;DHT22;38661;53.152;5.846;2023-05-10T11:39:01;14.90;88.00
52787;DHT22;38661;53.152;5.846;2023-05-10T11:41:29;14.80;87.60
52787;DHT22;38661;53.152;5.846;2023-05-10T11:43:56;14.90;87.60
52787;DHT22;38661;53.152;5.846;2023-05-10T11:46:23;14.90;87.80
52787;DHT22;38661;53.152;5.846;2023-05-10T11:48:55;15.00;87.10
52787;DHT22;38661;53.152;5.846;2023-05-10T11:51:25;15.00;86.90
52787;DHT22;38661;53.152;5.846;2023-05-10T11:53:53;15.10;86.50
52787;DHT22;38661;53.152;5.846;2023-05-10T11:56:19;15.10;85.80
52787;DHT22;38661;53.152;5.846;2023-05-10T11:58:53;15.10;86.20
52787;DHT22;38661;53.152;5.846;2023-05-10T12:01:21;15.30;86.30
52787;DHT22;38661;53.152;5.846;2023-05-10T12:03:47;15.40;86.30
52787;DHT22;38661;53.152;5.846;2023-05-10T12:06:16;15.40;86.00
52787;DHT22;38661;53.152;5.846;2023-05-10T12:08:46;15.50;86.30
52787;DHT22;38661;53.152;5.846;2023-05-10T12:11:13;15.60;86.20
52787;DHT22;38661;53.152;5.846;2023-05-10T12:13:43;15.80;85.30
52787;DHT22;38661;53.152;5.846;2023-05-10T12:16:29;15.90;85.40
52787;DHT22;38661;53.152;5.846;2023-05-10T12:18:59;16.00;84.20
52787;DHT22;38661;53.152;5.846;2023-05-10T12:21:25;16.10;83.70
52787;DHT22;38661;53.152;5.846;2023-05-10T12:23:53;16.10;83.50
52787;DHT22;38661;53.152;5.846;2023-05-10T12:26:23;16.10;82.90
52787;DHT22;38661;53.152;5.846;2023-05-10T12:28:50;16.10;82.80
52787;DHT22;38661;53.152;5.846;2023-05-10T12:31:15;16.10;82.60
52787;DHT22;38661;53.152;5.846;2023-05-10T12:33:43;16.00;82.50
52787;DHT22;38661;53.152;5.846;2023-05-10T12:36:10;16.00;82.70
52787;DHT22;38661;53.152;5.846;2023-05-10T12:38:37;16.00;82.50
52787;DHT22;38661;53.152;5.846;2023-05-10T12:41:06;16.00;82.40
52787;DHT22;38661;53.152;5.846;2023-05-10T12:43:33;16.00;82.30
52787;DHT22;38661;53.152;5.846;2023-05-10T12:46:05;16.10;81.90
52787;DHT22;38661;53.152;5.846;2023-05-10T12:48:31;16.20;81.90
52787;DHT22;38661;53.152;5.846;2023-05-10T12:50:57;16.20;82.10
52787;DHT22;38661;53.152;5.846;2023-05-10T12:53:22;16.30;81.40
52787;DHT22;38661;53.152;5.846;2023-05-10T12:55:48;16.30;81.80
52787;DHT22;38661;53.152;5.846;2023-05-10T12:58:14;16.30;82.20
52787;DHT22;38661;53.152;5.846;2023-05-10T13:00:39;16.30;82.10
52787;DHT22;38661;53.152;5.846;2023-05-10T13:03:05;16.30;81.90
52787;DHT22;38661;53.152;5.846;2023-05-10T13:05:32;16.30;81.80
52787;DHT22;38661;53.152;5.846;2023-05-10T13:07:58;16.30;81.50
52787;DHT22;38661;53.152;5.846;2023-05-10T13:10:24;16.30;81.90
52787;DHT22;38661;53.152;5.846;2023-05-10T13:12:50;16.30;81.90
52787;DHT22;38661;53.152;5.846;2023-05-10T13:15:16;16.30;82.10
52787;DHT22;38661;53.152;5.846;2023-05-10T13:17:42;16.30;82.20
52787;DHT22;38661;53.152;5.846;2023-05-10T13:20:08;16.30;81.90
52787;DHT22;38661;53.152;5.846;2023-05-10T13:22:35;16.20;81.10
52787;DHT22;38661;53.152;5.846;2023-05-10T13:25:01;16.20;81.50
52787;DHT22;38661;53.152;5.846;2023-05-10T13:27:27;16.00;81.60
52787;DHT22;38661;53.152;5.846;2023-05-10T13:29:53;16.00;81.70
52787;DHT22;38661;53.152;5.846;2023-05-10T13:32:18;16.00;81.30
52787;DHT22;38661;53.152;5.846;2023-05-10T13:34:44;16.00;80.90
52787;DHT22;38661;53.152;5.846;2023-05-10T13:37:10;16.00;81.10
52787;DHT22;38661;53.152;5.846;2023-05-10T13:39:36;16.00;80.90
52787;DHT22;38661;53.152;5.846;2023-05-10T13:42:03;16.00;81.30
52787;DHT22;38661;53.152;5.846;2023-05-10T13:44:29;16.00;81.20
52787;DHT22;38661;53.152;5.846;2023-05-10T13:46:56;16.00;81.30
52787;DHT22;38661;53.152;5.846;2023-05-10T13:49:22;16.00;81.30
52787;DHT22;38661;53.152;5.846;2023-05-10T13:51:48;16.00;81.80
52787;DHT22;38661;53.152;5.846;2023-05-10T13:54:14;16.00;82.80
52787;DHT22;38661;53.152;5.846;2023-05-10T13:56:41;15.90;83.30
52787;DHT22;38661;53.152;5.846;2023-05-10T13:59:07;15.70;84.30
52787;DHT22;38661;53.152;5.846;2023-05-10T14:01:33;15.70;84.30
52787;DHT22;38661;53.152;5.846;2023-05-10T14:03:59;15.50;84.80
52787;DHT22;38661;53.152;5.846;2023-05-10T14:06:25;15.50;85.20
52787;DHT22;38661;53.152;5.846;2023-05-10T14:08:53;15.50;84.90
52787;DHT22;38661;53.152;5.846;2023-05-10T14:11:19;15.50;85.00
52787;DHT22;38661;53.152;5.846;2023-05-10T14:13:45;15.40;85.40
52787;DHT22;38661;53.152;5.846;2023-05-10T14:16:11;15.50;84.90
52787;DHT22;38661;53.152;5.846;2023-05-10T14:18:37;15.50;85.20
52787;DHT22;38661;53.152;5.846;2023-05-10T14:21:05;15.50;85.30
52787;DHT22;38661;53.152;5.846;2023-05-10T14:23:31;15.50;85.50
52787;DHT22;38661;53.152;5.846;2023-05-10T14:25:57;15.60;84.80
52787;DHT22;38661;53.152;5.846;2023-05-10T14:28:23;15.50;84.40
52787;DHT22;38661;53.152;5.846;2023-05-10T14:30:50;15.60;83.80
52787;DHT22;38661;53.152;5.846;2023-05-10T14:33:16;15.60;83.90
52787;DHT22;38661;53.152;5.846;2023-05-10T14:35:44;15.60;83.80
52787;DHT22;38661;53.152;5.846;2023-05-10T14:38:11;15.80;83.80
52787;DHT22;38661;53.152;5.846;2023-05-10T14:40:37;15.80;83.40
52787;DHT22;38661;53.152;5.846;2023-05-10T14:43:03;16.00;83.30
52787;DHT22;38661;53.152;5.846;2023-05-10T14:45:29;16.10;83.30
52787;DHT22;38661;53.152;5.846;2023-05-10T14:47:55;16.30;82.50
52787;DHT22;38661;53.152;5.846;2023-05-10T14:50:20;16.50;82.00
52787;DHT22;38661;53.152;5.846;2023-05-10T14:52:46;16.70;81.70
52787;DHT22;38661;53.152;5.846;2023-05-10T14:55:12;17.00;80.90
52787;DHT22;38661;53.152;5.846;2023-05-10T14:57:37;17.30;80.80
52787;DHT22;38661;53.152;5.846;2023-05-10T15:00:04;17.40;79.80
52787;DHT22;38661;53.152;5.846;2023-05-10T15:02:30;17.60;79.70
52787;DHT22;38661;53.152;5.846;2023-05-10T15:04:56;17.80;78.50
52787;DHT22;38661;53.152;5.846;2023-05-10T15:07:23;17.80;77.40
52787;DHT22;38661;53.152;5.846;2023-05-10T15:09:50;17.90;77.70
52787;DHT22;38661;53.152;5.846;2023-05-10T15:12:17;17.90;77.80
52787;DHT22;38661;53.152;5.846;2023-05-10T15:14:43;17.90;77.70
52787;DHT22;38661;53.152;5.846;2023-05-10T15:17:15;17.80;77.20
52787;DHT22;38661;53.152;5.846;2023-05-10T15:20:10;17.80;78.30
52787;DHT22;38661;53.152;5.846;2023-05-10T15:22:38;17.70;78.10
52787;DHT22;38661;53.152;5.846;2023-05-10T15:31:36;17.20;78.70
52787;DHT22;38661;53.152;5.846;2023-05-10T15:34:02;17.20;78.50
52787;DHT22;38661;53.152;5.846;2023-05-10T15:36:28;17.40;78.40
52787;DHT22;38661;53.152;5.846;2023-05-10T15:38:54;17.60;78.10
52787;DHT22;38661;53.152;5.846;2023-05-10T15:41:20;17.60;77.20
52787;DHT22;38661;53.152;5.846;2023-05-10T15:43:48;17.50;77.10
52787;DHT22;38661;53.152;5.846;2023-05-10T15:46:17;17.40;77.30
52787;DHT22;38661;53.152;5.846;2023-05-10T15:48:42;17.30;77.40
52787;DHT22;38661;53.152;5.846;2023-05-10T15:51:08;17.20;77.50
52787;DHT22;38661;53.152;5.846;2023-05-10T15:53:34;17.30;77.20
52787;DHT22;38661;53.152;5.846;2023-05-10T15:56:00;17.20;77.30
52787;DHT22;38661;53.152;5.846;2023-05-10T15:58:26;17.30;77.30
52787;DHT22;38661;53.152;5.846;2023-05-10T16:00:51;17.30;76.90
52787;DHT22;38661;53.152;5.846;2023-05-10T16:03:17;17.20;77.20
52787;DHT22;38661;53.152;5.846;2023-05-10T16:05:43;17.30;77.80
52787;DHT22;38661;53.152;5.846;2023-05-10T16:08:08;17.20;78.30
52787;DHT22;38661;53.152;5.846;2023-05-10T16:10:34;17.10;78.00